Terminal Aerodrome Forecast
Issued by NWS Raleigh/Durham, NC

Home | Current Version | Previous Version | Text Only | Print | Product List | Glossary On
Versions: 1 2 3 4 5 6 7 8 9 10 11 12 13 14 15 16 17 18 19 20 21 22 23 24 25 26 27 28 29 30 31 32 33 34 35 36 37 38 39 40 41 42 43 44 45 46
000
FTUS42 KRAH 261410 AAA
TAFRDU
TAF AMD
KRDU 261410Z 2614/2712 00000KT P6SM OVC050
      TEMPO 2614/2616 3SM -RA BR BKN035
     FM261800 34006KT P6SM BKN035
     FM270000 34007G20KT P6SM BKN035
     FM270600 33006KT P6SM OVC050=

USA.gov is the U.S. government's official web portal to all federal, state and local government web resources and services.